createdAt,value
2023-02-27T00:00:20.358Z,96941.25
2023-02-27T00:02:51.830Z,96967.91
2023-02-27T00:05:22.490Z,96986.78
2023-02-27T00:07:51.000Z,96964.69
2023-02-27T00:10:21.260Z,96949.16
2023-02-27T00:12:54.286Z,96962.06
2023-02-27T00:15:22.623Z,96976.72
2023-02-27T00:17:51.134Z,96911.91
2023-02-27T00:20:20.973Z,97011.44
2023-02-27T00:22:49.214Z,96931.66
2023-02-27T00:25:17.847Z,96960.19
2023-02-27T00:27:47.425Z,96973.25
2023-02-27T00:30:17.167Z,96905.22
2023-02-27T00:32:45.676Z,97007.94
2023-02-27T00:35:14.216Z,96983.78
2023-02-27T00:37:43.047Z,97015.00
2023-02-27T00:40:13.416Z,96868.19
2023-02-27T00:42:41.953Z,96945.63
2023-02-27T00:45:12.424Z,97000.75
2023-02-27T00:47:40.617Z,96972.81
2023-02-27T00:50:10.562Z,96976.91
2023-02-27T00:52:38.893Z,96971.59
2023-02-27T00:55:08.598Z,96960.75
2023-02-27T00:57:36.831Z,96995.78
2023-02-27T01:00:07.339Z,96885.66
2023-02-27T01:02:37.186Z,96956.28
2023-02-27T01:05:10.165Z,96904.91
2023-02-27T01:07:39.311Z,96968.03
2023-02-27T01:10:11.071Z,96985.31
2023-02-27T01:12:39.905Z,96981.16
2023-02-27T01:15:10.890Z,96983.44
2023-02-27T01:17:40.612Z,96832.38
2023-02-27T01:20:11.740Z,97028.25
2023-02-27T01:22:40.043Z,96978.56
2023-02-27T01:25:09.839Z,96894.59
2023-02-27T01:27:40.842Z,96970.78
2023-02-27T01:30:17.390Z,96981.09
2023-02-27T01:32:47.470Z,97012.09
2023-02-27T01:35:15.835Z,96988.94
2023-02-27T01:37:44.606Z,97008.56
2023-02-27T01:40:14.899Z,96943.34
2023-02-27T01:42:43.750Z,97080.22
2023-02-27T01:45:30.335Z,96999.59
2023-02-27T01:48:08.098Z,96974.25
2023-02-27T01:50:40.857Z,96923.28
2023-02-27T01:53:11.639Z,96949.34
2023-02-27T01:55:40.706Z,97021.16
2023-02-27T01:58:12.575Z,96967.69
2023-02-27T02:00:41.210Z,96984.09
2023-02-27T02:03:19.956Z,96979.41
2023-02-27T02:05:48.938Z,96962.56
2023-02-27T02:08:21.244Z,96955.44
2023-02-27T02:10:52.925Z,96975.28
2023-02-27T02:13:23.968Z,96881.00
2023-02-27T02:16:08.585Z,96984.91
2023-02-27T02:18:50.147Z,96956.00
2023-02-27T02:22:11.597Z,96965.09
2023-02-27T02:25:33.994Z,96980.97
2023-02-27T02:28:17.010Z,97004.75
2023-02-27T02:31:25.384Z,97000.50
2023-02-27T02:34:44.227Z,97008.22
2023-02-27T02:38:04.495Z,96973.47
2023-02-27T02:40:39.209Z,96956.41
2023-02-27T02:43:13.585Z,96980.09
2023-02-27T02:45:51.171Z,96956.41
2023-02-27T02:48:28.247Z,96971.81
2023-02-27T02:51:07.025Z,97016.81
2023-02-27T02:53:43.994Z,96993.50
2023-02-27T02:56:23.204Z,96978.19
2023-02-27T02:58:59.729Z,97010.63
2023-02-27T03:01:33.454Z,96966.66
2023-02-27T03:04:09.620Z,96982.78
2023-02-27T03:06:42.079Z,97002.69
2023-02-27T03:09:18.420Z,97003.28
2023-02-27T03:11:52.271Z,96923.03
2023-02-27T03:14:30.336Z,97045.69
2023-02-27T03:17:08.316Z,96991.34
2023-02-27T03:19:42.694Z,96884.00
2023-02-27T03:22:16.787Z,96998.53
2023-02-27T03:24:49.359Z,96989.22
2023-02-27T03:27:20.312Z,96949.06
2023-02-27T03:29:54.922Z,96950.69
2023-02-27T03:32:31.151Z,96963.34
2023-02-27T03:35:01.091Z,97068.19
2023-02-27T03:37:39.596Z,96984.19
2023-02-27T03:40:20.372Z,97009.53
2023-02-27T03:42:57.384Z,96995.44
2023-02-27T03:45:59.266Z,96996.56
2023-02-27T03:48:27.712Z,96973.56
2023-02-27T03:50:56.237Z,97059.28
2023-02-27T03:53:33.434Z,97072.69
2023-02-27T03:56:04.324Z,97067.53
2023-02-27T03:58:34.298Z,96949.53
2023-02-27T04:01:03.035Z,97034.84
2023-02-27T04:03:35.696Z,97011.31
2023-02-27T04:06:24.572Z,97038.31
2023-02-27T04:09:00.667Z,96985.09
2023-02-27T04:11:57.340Z,97086.38
2023-02-27T04:14:43.073Z,97035.69
2023-02-27T04:17:25.329Z,97045.28
2023-02-27T04:20:14.625Z,97034.22
2023-02-27T04:22:49.517Z,97052.91
2023-02-27T04:25:35.941Z,97064.88
2023-02-27T04:28:17.402Z,97032.59
2023-02-27T04:31:04.224Z,96992.22
2023-02-27T04:33:44.790Z,97041.22
2023-02-27T04:36:20.592Z,97033.88
2023-02-27T04:38:55.406Z,97053.88
2023-02-27T04:41:29.288Z,97044.34
2023-02-27T04:43:59.411Z,97057.72
2023-02-27T04:46:31.735Z,97040.94
2023-02-27T04:49:05.005Z,96981.97
2023-02-27T04:51:40.048Z,97058.59
2023-02-27T04:54:12.129Z,97041.66
2023-02-27T04:56:45.972Z,97058.53
2023-02-27T04:59:19.484Z,97011.34
2023-02-27T05:02:16.620Z,97008.34
2023-02-27T05:04:46.612Z,97054.38
2023-02-27T05:07:20.036Z,97052.31
2023-02-27T05:09:53.431Z,96989.50
2023-02-27T05:12:26.520Z,97057.75
2023-02-27T05:15:02.293Z,97045.38
2023-02-27T05:17:37.302Z,97086.84
2023-02-27T05:20:07.937Z,97036.88
2023-02-27T05:22:47.268Z,97052.31
2023-02-27T05:25:22.639Z,97055.75
2023-02-27T05:27:55.471Z,97044.09
2023-02-27T05:30:29.997Z,97048.06
2023-02-27T05:33:06.700Z,97045.50
2023-02-27T05:35:39.750Z,97039.94
2023-02-27T05:38:16.538Z,97108.03
2023-02-27T05:40:50.940Z,97036.88
2023-02-27T05:43:24.510Z,97050.25
2023-02-27T05:45:57.919Z,97096.56
2023-02-27T05:48:32.256Z,97073.97
2023-02-27T05:51:01.061Z,97077.81
2023-02-27T05:53:35.180Z,97074.16
2023-02-27T05:56:06.719Z,97088.22
2023-02-27T05:58:40.206Z,97154.69
2023-02-27T06:01:11.428Z,97129.13
2023-02-27T06:03:42.150Z,97047.72
2023-02-27T06:06:15.799Z,97062.88
2023-02-27T06:08:44.364Z,97045.66
2023-02-27T06:11:13.276Z,97081.75
2023-02-27T06:13:42.284Z,96960.69
2023-02-27T06:16:13.151Z,97077.47
2023-02-27T06:18:42.831Z,97069.25
2023-02-27T06:21:15.032Z,97054.38
2023-02-27T06:23:43.341Z,97117.50
2023-02-27T06:26:14.286Z,97125.94
2023-02-27T06:28:43.360Z,97076.84
2023-02-27T06:31:11.677Z,97124.34
2023-02-27T06:33:40.359Z,97096.22
2023-02-27T06:36:10.001Z,97134.13
2023-02-27T06:38:38.255Z,97083.19
2023-02-27T06:41:07.457Z,97100.81
2023-02-27T06:43:37.111Z,97100.19
2023-02-27T06:46:06.522Z,97091.28
2023-02-27T06:48:35.214Z,97099.94
2023-02-27T06:51:03.589Z,97095.47
2023-02-27T06:53:33.507Z,97114.91
2023-02-27T06:56:01.821Z,97088.00
2023-02-27T06:58:30.005Z,97105.53
2023-02-27T07:01:00.669Z,97115.88
2023-02-27T07:03:30.826Z,97142.41
2023-02-27T07:05:59.563Z,97113.63
2023-02-27T07:08:27.921Z,97088.13
2023-02-27T07:10:57.597Z,97101.66
2023-02-27T07:13:25.962Z,97122.72
2023-02-27T07:15:54.255Z,97135.75
2023-02-27T07:18:22.560Z,97085.47
2023-02-27T07:20:52.349Z,97114.25
2023-02-27T07:23:20.625Z,97161.25
2023-02-27T07:25:49.402Z,97034.91
2023-02-27T07:28:19.143Z,97131.34
2023-02-27T07:30:47.805Z,97113.88
2023-02-27T07:33:16.114Z,97108.00
2023-02-27T07:35:46.648Z,97089.94
2023-02-27T07:38:14.871Z,97142.38
2023-02-27T07:40:43.291Z,97130.06
2023-02-27T07:43:12.611Z,97168.81
2023-02-27T07:45:42.754Z,97105.47
2023-02-27T07:48:11.044Z,97159.47
2023-02-27T07:50:39.541Z,97150.22
2023-02-27T07:53:08.074Z,97128.03
2023-02-27T07:55:36.730Z,97106.47
2023-02-27T07:58:04.960Z,97141.97
2023-02-27T08:00:33.186Z,97123.00
2023-02-27T08:03:02.846Z,97132.41
2023-02-27T08:05:31.447Z,97103.19
2023-02-27T08:07:59.750Z,97129.31
2023-02-27T08:10:28.089Z,97087.78
2023-02-27T08:12:56.720Z,97097.31
2023-02-27T08:15:25.433Z,97162.09
2023-02-27T08:17:53.714Z,97125.56
2023-02-27T08:20:24.028Z,97088.56
2023-02-27T08:22:52.443Z,97116.69
2023-02-27T08:25:21.481Z,97091.13
2023-02-27T08:27:49.711Z,97100.19
2023-02-27T08:30:18.266Z,97074.81
2023-02-27T08:32:46.697Z,97148.56
2023-02-27T08:35:15.438Z,97114.34
2023-02-27T08:37:45.000Z,97100.78
2023-02-27T08:40:13.856Z,97151.69
2023-02-27T08:42:42.086Z,97124.16
2023-02-27T08:45:12.159Z,97131.47
2023-02-27T08:47:40.386Z,97160.81
2023-02-27T08:50:10.551Z,97153.34
2023-02-27T08:52:38.874Z,97127.28
2023-02-27T08:55:10.345Z,97114.88
2023-02-27T08:57:39.442Z,97182.81
2023-02-27T09:00:10.488Z,97041.53
2023-02-27T09:02:38.949Z,97113.59
2023-02-27T09:05:17.923Z,97113.06
2023-02-27T09:07:46.123Z,97152.88
2023-02-27T09:10:16.074Z,97109.94
2023-02-27T09:12:44.385Z,97118.53
2023-02-27T09:15:13.270Z,97103.66
2023-02-27T09:17:41.830Z,97113.66
2023-02-27T09:20:12.263Z,97154.94
2023-02-27T09:22:41.293Z,97143.44
2023-02-27T09:25:10.743Z,97138.47
2023-02-27T09:27:40.326Z,97147.91
2023-02-27T09:30:10.760Z,97101.41
2023-02-27T09:32:41.595Z,97125.66
2023-02-27T09:35:10.792Z,97171.97
2023-02-27T09:37:39.412Z,97113.94
2023-02-27T09:40:09.095Z,97156.00
2023-02-27T09:42:45.493Z,97162.66
2023-02-27T09:45:24.174Z,97163.28
2023-02-27T09:47:57.717Z,97207.31
2023-02-27T09:50:40.083Z,96988.50
2023-02-27T09:53:16.150Z,97161.16
2023-02-27T09:55:47.121Z,97120.34
2023-02-27T09:58:36.147Z,97128.78
2023-02-27T10:01:11.531Z,97148.16
2023-02-27T10:04:14.093Z,97191.66
2023-02-27T10:06:48.381Z,97185.56
2023-02-27T10:09:31.227Z,97117.00
2023-02-27T10:12:14.203Z,97191.13
2023-02-27T10:14:49.222Z,97147.97
2023-02-27T10:17:25.626Z,97190.28
2023-02-27T10:19:55.647Z,97158.00
2023-02-27T10:22:29.933Z,97164.88
2023-02-27T10:25:06.263Z,97170.75
2023-02-27T10:27:37.886Z,97170.69
2023-02-27T10:30:29.481Z,97174.22
2023-02-27T10:33:12.698Z,97222.78
2023-02-27T10:35:44.690Z,97205.59
2023-02-27T10:38:18.025Z,97114.72
2023-02-27T10:40:47.899Z,97115.75
2023-02-27T10:43:19.447Z,97203.91
2023-02-27T10:45:49.133Z,97152.94
2023-02-27T10:48:18.405Z,97228.47
2023-02-27T10:50:51.099Z,97155.63
2023-02-27T10:53:23.026Z,97198.28
2023-02-27T10:56:01.999Z,97172.50
2023-02-27T10:58:34.876Z,97216.81
2023-02-27T11:01:07.517Z,97094.69
2023-02-27T11:03:41.145Z,97207.06
2023-02-27T11:06:14.522Z,97154.88
2023-02-27T11:08:43.688Z,97165.00
2023-02-27T11:11:13.298Z,97172.28
2023-02-27T11:13:44.162Z,97077.66
2023-02-27T11:16:16.908Z,97171.44
2023-02-27T11:18:47.632Z,97173.22
2023-02-27T11:21:23.227Z,97048.00
2023-02-27T11:24:01.690Z,97184.31
2023-02-27T11:26:36.279Z,97192.13
2023-02-27T11:29:18.392Z,97169.75
2023-02-27T11:31:53.185Z,97182.59
2023-02-27T11:34:30.000Z,97114.53
2023-02-27T11:37:02.029Z,97191.59
2023-02-27T11:39:37.797Z,97178.78
2023-02-27T11:42:20.113Z,97147.66
2023-02-27T11:44:56.819Z,97153.81
2023-02-27T11:47:32.591Z,97154.50
2023-02-27T11:50:42.030Z,97170.84
2023-02-27T11:53:47.957Z,97144.41
2023-02-27T11:56:22.499Z,97147.50
2023-02-27T11:59:02.735Z,97151.47
2023-02-27T12:01:38.451Z,97207.66
2023-02-27T12:04:15.967Z,97239.28
2023-02-27T12:06:52.100Z,97202.88
2023-02-27T12:09:35.749Z,97141.59
2023-02-27T12:12:10.598Z,97195.50
2023-02-27T12:14:48.404Z,97171.66
2023-02-27T12:17:23.711Z,97208.06
2023-02-27T12:20:22.723Z,97155.31
2023-02-27T12:22:54.553Z,97149.81
2023-02-27T12:25:37.793Z,97143.16
2023-02-27T12:28:21.653Z,97126.72
2023-02-27T12:31:07.787Z,97166.03
2023-02-27T12:33:43.489Z,97098.72
2023-02-27T12:36:15.369Z,97158.16
2023-02-27T12:38:43.820Z,97155.38
2023-02-27T12:41:37.648Z,97172.56
2023-02-27T12:44:32.220Z,97144.06
2023-02-27T12:47:16.045Z,97166.59
2023-02-27T12:49:53.778Z,97122.81
2023-02-27T12:52:38.541Z,97174.06
2023-02-27T12:55:14.263Z,97106.16
2023-02-27T12:58:15.139Z,97140.91
2023-02-27T13:00:48.790Z,97157.88
2023-02-27T13:03:23.291Z,97074.78
2023-02-27T13:06:01.673Z,97131.69
2023-02-27T13:08:58.408Z,97128.19
2023-02-27T13:11:44.493Z,97126.16
2023-02-27T13:14:29.625Z,97149.38
2023-02-27T13:17:03.253Z,97042.69
2023-02-27T13:19:36.496Z,97137.88
2023-02-27T13:22:16.047Z,97158.41
2023-02-27T13:24:50.257Z,97215.41
2023-02-27T13:27:25.001Z,97094.59
2023-02-27T13:30:08.438Z,97161.28
2023-02-27T13:32:45.618Z,97114.91
2023-02-27T13:35:29.606Z,97147.38
2023-02-27T13:38:02.187Z,97137.09
2023-02-27T13:40:41.455Z,97119.75
2023-02-27T13:43:40.555Z,97054.41
2023-02-27T13:46:24.971Z,97093.78
2023-02-27T13:48:54.558Z,97016.31
2023-02-27T13:51:59.617Z,97087.63
2023-02-27T13:54:32.793Z,97144.06
2023-02-27T13:57:24.307Z,97148.19
2023-02-27T13:59:57.153Z,97060.78
2023-02-27T14:02:57.820Z,97165.63
2023-02-27T14:05:36.331Z,97151.72
2023-02-27T14:08:15.456Z,97111.13
2023-02-27T14:10:58.165Z,97136.66
2023-02-27T14:14:06.639Z,97093.81
2023-02-27T14:19:59.469Z,97113.72
2023-02-27T14:23:18.176Z,97178.25
2023-02-27T14:25:49.230Z,97068.38
2023-02-27T14:28:27.220Z,97114.81
2023-02-27T14:31:01.086Z,97144.00
2023-02-27T14:33:45.509Z,97118.06
2023-02-27T14:36:20.490Z,97074.16
2023-02-27T14:38:49.881Z,97176.09
2023-02-27T14:41:38.088Z,97115.88
2023-02-27T14:44:06.573Z,97082.78
2023-02-27T14:46:39.386Z,97105.00
2023-02-27T14:49:18.940Z,97127.66
2023-02-27T14:51:47.288Z,97086.28
2023-02-27T14:54:19.592Z,97153.06
2023-02-27T14:56:56.104Z,97136.00
2023-02-27T14:59:26.566Z,97133.75
2023-02-27T15:02:04.382Z,97132.34
2023-02-27T15:04:34.438Z,97145.28
2023-02-27T15:07:04.082Z,97147.50
2023-02-27T15:09:42.893Z,97143.59
2023-02-27T15:12:18.147Z,97146.34
2023-02-27T15:14:51.486Z,97185.06
2023-02-27T15:17:23.056Z,97136.19
2023-02-27T15:19:55.159Z,97135.44
2023-02-27T15:22:38.642Z,97005.50
2023-02-27T15:25:23.647Z,97173.81
2023-02-27T15:27:51.949Z,97170.63
2023-02-27T15:30:23.568Z,97106.09
2023-02-27T15:32:55.640Z,97136.78
2023-02-27T15:35:27.545Z,97144.31
2023-02-27T15:37:59.399Z,97089.19
2023-02-27T15:40:31.488Z,97072.16
2023-02-27T15:43:01.342Z,97159.69
2023-02-27T15:45:33.643Z,97128.50
2023-02-27T15:48:04.019Z,97140.16
2023-02-27T15:50:38.163Z,97131.00
2023-02-27T15:53:14.838Z,97106.84
2023-02-27T15:55:46.956Z,97150.59
2023-02-27T15:58:24.335Z,97184.31
2023-02-27T16:01:00.714Z,97156.38
2023-02-27T16:03:34.747Z,97183.44
2023-02-27T16:06:03.258Z,97190.88
2023-02-27T16:08:32.447Z,97119.03
2023-02-27T16:11:02.399Z,97162.88
2023-02-27T16:13:35.925Z,97128.75
2023-02-27T16:16:28.113Z,97170.06
2023-02-27T16:19:00.166Z,97189.13
2023-02-27T16:21:31.558Z,97157.72
2023-02-27T16:24:21.617Z,97171.44
2023-02-27T16:26:53.563Z,97140.88
2023-02-27T16:29:25.276Z,97086.50
2023-02-27T16:31:56.608Z,97192.00
2023-02-27T16:34:44.268Z,97189.09
2023-02-27T16:37:22.828Z,97184.28
2023-02-27T16:39:54.278Z,97177.00
2023-02-27T16:42:22.952Z,97195.91
2023-02-27T16:44:51.250Z,97204.78
2023-02-27T16:47:19.509Z,97179.22
2023-02-27T16:49:49.497Z,97186.28
2023-02-27T16:52:17.780Z,97203.78
2023-02-27T16:54:46.100Z,97238.41
2023-02-27T16:57:14.360Z,97232.53
2023-02-27T16:59:44.125Z,97239.47
2023-02-27T17:02:16.195Z,97265.53
2023-02-27T17:04:50.038Z,97234.03
2023-02-27T17:07:19.851Z,97232.00
2023-02-27T17:09:49.154Z,97267.78
2023-02-27T17:12:18.217Z,97224.88
2023-02-27T17:14:47.137Z,97244.97
2023-02-27T17:17:15.963Z,97212.69
2023-02-27T17:19:45.368Z,96989.50
2023-02-27T17:22:15.752Z,97240.72
2023-02-27T17:24:44.067Z,97292.38
2023-02-27T17:27:12.435Z,97287.94
2023-02-27T17:29:40.979Z,97288.31
2023-02-27T17:32:09.478Z,97277.53
2023-02-27T17:34:37.960Z,97301.03
2023-02-27T17:37:06.658Z,97312.88
2023-02-27T17:39:36.309Z,97265.75
2023-02-27T17:42:04.831Z,97285.50
2023-02-27T17:44:33.206Z,97281.94
2023-02-27T17:47:01.498Z,97284.56
2023-02-27T17:49:29.760Z,97260.38
2023-02-27T17:52:00.649Z,97229.72
2023-02-27T17:54:29.046Z,97282.91
2023-02-27T17:56:58.721Z,97324.47
2023-02-27T17:59:27.110Z,97284.41
2023-02-27T18:01:55.881Z,97327.66
2023-02-27T18:04:24.423Z,97330.03
2023-02-27T18:06:53.017Z,97349.16
2023-02-27T18:09:21.335Z,97280.22
2023-02-27T18:11:49.650Z,97337.88
2023-02-27T18:14:19.328Z,97283.75
2023-02-27T18:16:47.730Z,97334.28
2023-02-27T18:19:15.972Z,97332.38
2023-02-27T18:21:47.049Z,97320.34
2023-02-27T18:24:17.458Z,97158.84
2023-02-27T18:26:45.775Z,97318.44
2023-02-27T18:29:16.249Z,97337.78
2023-02-27T18:31:50.111Z,97296.25
2023-02-27T18:34:18.468Z,97300.63
2023-02-27T18:36:46.779Z,97296.47
2023-02-27T18:39:15.486Z,97321.56
2023-02-27T18:41:43.729Z,97320.81
2023-02-27T18:44:12.672Z,97311.38
2023-02-27T18:46:41.206Z,97284.66
2023-02-27T18:49:11.120Z,97328.13
2023-02-27T18:51:39.393Z,97345.50
2023-02-27T18:54:08.422Z,97345.00
2023-02-27T18:56:36.731Z,97377.41
2023-02-27T18:59:06.610Z,97299.13
2023-02-27T19:01:42.379Z,97369.72
2023-02-27T19:04:12.086Z,97318.09
2023-02-27T19:06:42.862Z,97302.78
2023-02-27T19:09:16.072Z,97340.59
2023-02-27T19:11:46.035Z,97329.34
2023-02-27T19:14:16.198Z,97309.94
2023-02-27T19:16:46.172Z,97257.69
2023-02-27T19:19:15.809Z,97292.41
2023-02-27T19:21:44.259Z,97333.81
2023-02-27T19:24:14.510Z,97311.44
2023-02-27T19:26:43.049Z,97364.09
2023-02-27T19:29:11.420Z,97315.91
2023-02-27T19:31:40.562Z,97329.28
2023-02-27T19:34:09.093Z,97323.25
2023-02-27T19:36:40.202Z,97308.31
2023-02-27T19:39:08.543Z,97341.06
2023-02-27T19:41:37.460Z,97332.94
2023-02-27T19:44:05.807Z,97348.28
2023-02-27T19:46:35.428Z,97330.97
2023-02-27T19:49:06.065Z,97307.91
2023-02-27T19:51:34.860Z,97349.59
2023-02-27T19:54:05.022Z,97354.88
2023-02-27T19:56:33.353Z,97379.50
2023-02-27T19:59:02.091Z,97351.34
2023-02-27T20:01:34.077Z,97349.59
2023-02-27T20:04:03.821Z,97197.72
2023-02-27T20:06:42.421Z,97312.88
2023-02-27T20:09:15.250Z,97370.81
2023-02-27T20:11:44.577Z,97298.84
2023-02-27T20:14:14.924Z,97392.78
2023-02-27T20:16:44.518Z,97305.13
2023-02-27T20:19:16.988Z,97330.53
2023-02-27T20:21:46.273Z,97320.34
2023-02-27T20:24:18.208Z,97293.44
2023-02-27T20:26:49.939Z,97294.66
2023-02-27T20:29:21.630Z,97290.38
2023-02-27T20:31:52.694Z,97324.38
2023-02-27T20:34:26.305Z,97326.53
2023-02-27T20:36:56.037Z,97304.91
2023-02-27T20:39:27.964Z,97321.91
2023-02-27T20:41:56.464Z,97305.13
2023-02-27T20:44:24.792Z,97374.59
2023-02-27T20:46:53.206Z,97340.22
2023-02-27T20:49:22.755Z,97300.44
2023-02-27T20:51:51.052Z,97339.56
2023-02-27T20:54:21.059Z,97279.63
2023-02-27T20:56:54.300Z,97347.47
2023-02-27T20:59:25.213Z,97322.16
2023-02-27T21:01:55.253Z,97286.22
2023-02-27T21:04:43.337Z,97297.81
2023-02-27T21:07:12.924Z,97324.91
2023-02-27T21:09:41.328Z,97199.94
2023-02-27T21:12:12.247Z,97285.19
2023-02-27T21:14:44.307Z,97296.50
2023-02-27T21:17:13.821Z,97242.25
2023-02-27T21:19:42.143Z,97341.19
2023-02-27T21:22:11.411Z,97377.06
2023-02-27T21:24:39.832Z,97311.06
2023-02-27T21:27:08.128Z,97333.09
2023-02-27T21:29:37.684Z,97315.53
2023-02-27T21:32:07.509Z,97254.22
2023-02-27T21:34:35.868Z,97340.22
2023-02-27T21:37:07.326Z,97277.25
2023-02-27T21:39:35.829Z,97302.69
2023-02-27T21:42:06.799Z,97274.59
2023-02-27T21:44:38.721Z,97244.09
2023-02-27T21:47:10.056Z,97310.84
2023-02-27T21:49:39.233Z,97330.59
2023-02-27T21:52:08.044Z,97296.91
2023-02-27T21:54:36.564Z,97177.34
2023-02-27T21:57:05.145Z,97254.47
2023-02-27T21:59:33.411Z,97281.00
2023-02-27T22:02:03.312Z,97309.22
2023-02-27T22:04:31.631Z,97298.00
2023-02-27T22:07:00.047Z,97241.31
2023-02-27T22:09:28.604Z,97285.56
2023-02-27T22:11:57.314Z,97270.25
2023-02-27T22:14:26.211Z,97312.69
2023-02-27T22:16:54.471Z,97301.81
2023-02-27T22:19:24.038Z,97221.09
2023-02-27T22:21:52.438Z,97222.75
2023-02-27T22:24:20.982Z,97280.16
2023-02-27T22:26:50.300Z,97288.22
2023-02-27T22:29:18.791Z,97297.28
2023-02-27T22:31:47.978Z,97212.16
2023-02-27T22:34:19.324Z,97253.44
2023-02-27T22:36:52.365Z,97236.44
2023-02-27T22:39:21.451Z,97285.13
2023-02-27T22:41:49.858Z,97292.47
2023-02-27T22:44:18.679Z,97309.28
2023-02-27T22:46:49.077Z,97290.38
2023-02-27T22:49:19.999Z,97253.97
2023-02-27T22:51:51.618Z,97271.44
2023-02-27T22:54:21.474Z,97279.53
2023-02-27T22:56:51.773Z,97300.38
2023-02-27T22:59:20.435Z,97254.69
2023-02-27T23:04:43.505Z,97267.34
2023-02-27T23:07:13.039Z,97286.91
2023-02-27T23:09:41.410Z,97251.03
2023-02-27T23:12:09.678Z,97213.63
2023-02-27T23:14:37.863Z,97241.84
2023-02-27T23:17:06.051Z,97310.00
2023-02-27T23:19:34.633Z,97301.97
2023-02-27T23:22:02.939Z,97294.25
2023-02-27T23:24:32.466Z,97308.06
2023-02-27T23:27:02.711Z,97259.94
2023-02-27T23:29:31.188Z,97293.19
2023-02-27T23:31:59.531Z,97255.22
2023-02-27T23:34:29.116Z,97265.72
2023-02-27T23:37:01.934Z,97248.59
2023-02-27T23:39:30.329Z,97249.00
2023-02-27T23:42:00.066Z,97254.22
2023-02-27T23:44:27.397Z,97287.75
2023-02-27T23:46:55.674Z,97204.00
2023-02-27T23:49:24.104Z,97272.00
2023-02-27T23:51:52.476Z,97247.91
2023-02-27T23:54:20.669Z,97231.88
2023-02-27T23:56:49.388Z,97247.50
2023-02-27T23:59:19.080Z,97059.22
